createdAt,value
2018-10-21T00:00:50.761Z,84.22
2018-10-21T00:03:20.255Z,84.16
2018-10-21T00:05:48.905Z,84.17
2018-10-21T00:08:17.569Z,83.42
2018-10-21T00:10:46.280Z,84.00
2018-10-21T00:13:15.197Z,85.38
2018-10-21T00:15:43.966Z,84.98
2018-10-21T00:18:12.605Z,84.72
2018-10-21T00:20:41.335Z,83.87
2018-10-21T00:23:09.961Z,83.67
2018-10-21T00:25:38.657Z,83.12
2018-10-21T00:28:07.611Z,85.12
2018-10-21T00:30:36.672Z,84.40
2018-10-21T00:33:05.976Z,84.28
2018-10-21T00:35:35.009Z,84.17
2018-10-21T00:38:03.683Z,84.81
2018-10-21T00:40:32.315Z,84.77
2018-10-21T00:43:00.975Z,84.36
2018-10-21T00:45:30.333Z,84.81
2018-10-21T00:47:59.062Z,85.28
2018-10-21T00:50:27.788Z,84.95
2018-10-21T00:52:56.453Z,85.49
2018-10-21T00:55:25.415Z,84.68
2018-10-21T00:57:54.049Z,84.70
2018-10-21T01:00:22.781Z,84.20
2018-10-21T01:02:51.434Z,84.74
2018-10-21T01:05:20.130Z,84.88
2018-10-21T01:07:48.836Z,84.45
2018-10-21T01:10:17.462Z,84.66
2018-10-21T01:12:46.153Z,85.33
2018-10-21T01:15:14.860Z,84.20
2018-10-21T01:17:43.695Z,83.89
2018-10-21T01:20:13.149Z,83.33
2018-10-21T01:22:42.590Z,83.92
2018-10-21T01:25:11.679Z,83.97
2018-10-21T01:27:41.363Z,84.16
2018-10-21T01:30:11.361Z,82.88
2018-10-21T01:32:40.004Z,83.90
2018-10-21T01:35:09.167Z,82.65
2018-10-21T01:37:38.155Z,83.33
2018-10-21T01:40:45.603Z,82.22
2018-10-21T01:43:15.948Z,81.97
2018-10-21T01:45:44.955Z,81.57
2018-10-21T01:48:15.285Z,81.96
2018-10-21T01:50:44.205Z,82.93
2018-10-21T01:53:14.458Z,83.35
2018-10-21T01:55:43.472Z,83.29
2018-10-21T01:58:12.166Z,82.54
2018-10-21T02:00:41.681Z,81.83
2018-10-21T02:03:10.477Z,82.59
2018-10-21T02:05:39.799Z,82.72
2018-10-21T02:08:09.768Z,81.81
2018-10-21T02:10:38.444Z,82.53
2018-10-21T02:13:07.114Z,83.55
2018-10-21T02:15:35.851Z,83.46
2018-10-21T02:18:04.629Z,82.91
2018-10-21T02:20:33.675Z,83.55
2018-10-21T02:23:02.633Z,83.99
2018-10-21T02:25:31.273Z,83.57
2018-10-21T02:27:59.914Z,84.14
2018-10-21T02:30:29.615Z,84.34
2018-10-21T02:32:58.829Z,85.04
2018-10-21T02:35:27.525Z,85.38
2018-10-21T02:37:56.690Z,85.87
2018-10-21T02:41:37.218Z,87.42
2018-10-21T02:44:07.154Z,86.36
2018-10-21T02:46:36.432Z,86.79
2018-10-21T02:49:06.039Z,87.86
2018-10-21T02:51:34.753Z,88.81
2018-10-21T02:54:03.464Z,89.50
2018-10-21T02:56:32.179Z,88.70
2018-10-21T02:59:00.812Z,87.38
2018-10-21T03:01:29.578Z,86.58
2018-10-21T03:03:58.228Z,87.25
2018-10-21T03:06:27.200Z,88.23
2018-10-21T03:08:55.892Z,89.01
2018-10-21T03:11:24.682Z,89.66
2018-10-21T03:13:53.427Z,90.94
2018-10-21T03:16:22.065Z,90.81
2018-10-21T03:18:50.726Z,91.10
2018-10-21T03:21:19.480Z,90.31
2018-10-21T03:23:48.130Z,90.02
2018-10-21T03:26:16.813Z,89.69
2018-10-21T03:28:45.453Z,89.32
2018-10-21T03:31:14.143Z,89.30
2018-10-21T03:33:43.030Z,88.33
2018-10-21T03:36:11.541Z,89.38
2018-10-21T03:38:40.271Z,88.56
2018-10-21T03:41:08.946Z,88.59
2018-10-21T03:43:37.918Z,88.36
2018-10-21T03:46:06.699Z,87.94
2018-10-21T03:48:35.373Z,87.15
2018-10-21T03:51:04.033Z,87.37
2018-10-21T03:53:33.028Z,89.25
2018-10-21T03:56:01.701Z,88.18
2018-10-21T03:58:30.341Z,88.22
2018-10-21T04:00:59.076Z,87.10
2018-10-21T04:03:27.762Z,87.02
2018-10-21T04:05:56.737Z,87.45
2018-10-21T04:08:25.463Z,86.95
2018-10-21T04:10:54.118Z,86.57
2018-10-21T04:13:22.753Z,86.03
2018-10-21T04:15:51.429Z,86.68
2018-10-21T04:18:20.188Z,85.64
2018-10-21T04:20:48.800Z,86.49
2018-10-21T04:23:17.490Z,86.82
2018-10-21T04:25:46.144Z,85.96
2018-10-21T04:28:15.120Z,85.16
2018-10-21T04:30:44.144Z,86.94
2018-10-21T04:33:46.042Z,88.30
2018-10-21T04:36:22.731Z,89.34
2018-10-21T04:40:03.200Z,90.21
2018-10-21T04:42:31.965Z,90.27
2018-10-21T04:45:01.129Z,90.64
2018-10-21T04:47:30.221Z,90.79
2018-10-21T04:49:58.878Z,91.03
2018-10-21T04:52:28.695Z,91.55
2018-10-21T04:55:01.538Z,91.86
2018-10-21T04:57:30.311Z,92.43
2018-10-21T04:59:58.974Z,92.47
2018-10-21T05:02:28.060Z,92.64
2018-10-21T05:04:56.698Z,93.03
2018-10-21T05:07:25.479Z,93.10
2018-10-21T05:09:54.173Z,93.33
2018-10-21T05:12:22.815Z,93.35
2018-10-21T05:14:51.486Z,93.40
2018-10-21T05:17:20.133Z,93.29
2018-10-21T05:19:48.797Z,93.21
2018-10-21T05:22:17.618Z,93.46
2018-10-21T05:24:46.268Z,93.95
2018-10-21T05:27:14.911Z,93.85
2018-10-21T05:29:43.501Z,94.36
2018-10-21T05:32:12.174Z,93.94
2018-10-21T05:34:40.858Z,94.47
2018-10-21T05:37:09.823Z,94.76
2018-10-21T05:39:38.529Z,94.13
2018-10-21T05:42:07.184Z,93.75
2018-10-21T05:44:35.837Z,93.82
2018-10-21T05:47:04.519Z,93.48
2018-10-21T05:49:33.201Z,92.90
2018-10-21T05:52:01.853Z,93.23
2018-10-21T05:54:30.516Z,93.45
2018-10-21T05:56:59.177Z,92.91
2018-10-21T05:59:27.843Z,93.05
2018-10-21T06:01:56.548Z,92.89
2018-10-21T06:04:25.138Z,92.73
2018-10-21T06:06:53.841Z,92.80
2018-10-21T06:09:22.479Z,91.87
2018-10-21T06:11:51.140Z,91.76
2018-10-21T06:14:19.765Z,91.82
2018-10-21T06:16:52.763Z,92.00
2018-10-21T06:19:24.990Z,91.68
2018-10-21T06:21:54.169Z,91.32
2018-10-21T06:24:22.828Z,90.49
2018-10-21T06:26:53.208Z,90.35
2018-10-21T06:29:21.918Z,89.40
2018-10-21T06:31:50.572Z,89.14
2018-10-21T06:34:19.234Z,88.63
2018-10-21T06:36:47.908Z,88.24
2018-10-21T06:39:16.630Z,88.58
2018-10-21T06:41:45.352Z,88.54
2018-10-21T06:44:14.086Z,87.92
2018-10-21T06:46:42.761Z,87.19
2018-10-21T06:49:11.566Z,86.90
2018-10-21T06:51:40.260Z,86.05
2018-10-21T06:54:08.912Z,85.89
2018-10-21T06:56:37.661Z,85.42
2018-10-21T06:59:06.608Z,85.03
2018-10-21T07:01:35.233Z,84.82
2018-10-21T07:04:03.939Z,85.01
2018-10-21T07:06:33.699Z,85.18
2018-10-21T07:09:05.306Z,85.39
2018-10-21T07:11:34.089Z,85.41
2018-10-21T07:14:02.778Z,85.32
2018-10-21T07:16:31.909Z,84.88
2018-10-21T07:19:01.126Z,84.89
2018-10-21T07:21:29.745Z,84.88
2018-10-21T07:23:58.449Z,84.53
2018-10-21T07:26:27.272Z,84.04
2018-10-21T07:28:55.964Z,84.12
2018-10-21T07:31:24.721Z,83.48
2018-10-21T07:33:53.897Z,82.64
2018-10-21T07:36:22.989Z,82.83
2018-10-21T07:38:51.666Z,80.67
2018-10-21T07:41:20.392Z,79.78
2018-10-21T07:43:48.996Z,80.07
2018-10-21T07:46:17.761Z,80.24
2018-10-21T07:48:46.353Z,78.87
2018-10-21T07:51:14.992Z,76.69
2018-10-21T07:53:43.634Z,76.60
2018-10-21T07:56:12.322Z,75.96
2018-10-21T07:58:41.012Z,75.92
2018-10-21T08:01:09.773Z,76.04
2018-10-21T08:03:38.397Z,77.42
2018-10-21T08:06:37.878Z,77.92
2018-10-21T08:09:08.750Z,77.28
2018-10-21T08:11:37.426Z,76.92
2018-10-21T08:14:06.264Z,77.15
2018-10-21T08:16:34.918Z,76.15
2018-10-21T08:19:03.954Z,75.48
2018-10-21T08:21:32.680Z,75.08
2018-10-21T08:24:01.392Z,74.50
2018-10-21T08:26:30.019Z,75.29
2018-10-21T08:28:58.944Z,74.32
2018-10-21T08:31:27.674Z,74.33
2018-10-21T08:33:56.384Z,74.25
2018-10-21T08:36:25.065Z,73.66
2018-10-21T08:38:54.060Z,72.85
2018-10-21T08:41:23.094Z,72.43
2018-10-21T08:43:51.777Z,72.24
2018-10-21T08:46:20.556Z,72.32
2018-10-21T08:48:49.192Z,72.84
2018-10-21T08:51:17.872Z,72.21
2018-10-21T08:53:46.676Z,72.16
2018-10-21T08:56:15.610Z,72.22
2018-10-21T08:58:44.303Z,72.62
2018-10-21T09:01:13.087Z,72.13
2018-10-21T09:03:41.997Z,71.28
2018-10-21T09:06:10.627Z,71.15
2018-10-21T09:08:39.278Z,70.58
2018-10-21T09:11:08.025Z,69.81
2018-10-21T09:13:37.023Z,70.42
2018-10-21T09:16:05.881Z,69.44
2018-10-21T09:18:34.949Z,68.53
2018-10-21T09:21:03.891Z,69.02
2018-10-21T09:23:32.671Z,68.62
2018-10-21T09:26:01.354Z,68.29
2018-10-21T09:28:30.341Z,68.49
2018-10-21T09:30:59.127Z,67.13
2018-10-21T09:33:27.969Z,66.52
2018-10-21T09:35:56.702Z,65.81
2018-10-21T09:38:25.411Z,65.42
2018-10-21T09:40:54.284Z,64.45
2018-10-21T09:43:23.067Z,63.62
2018-10-21T09:45:51.779Z,64.44
2018-10-21T09:48:20.773Z,63.73
2018-10-21T09:50:49.534Z,63.58
2018-10-21T09:53:18.266Z,62.85
2018-10-21T09:55:46.947Z,61.12
2018-10-21T09:58:15.753Z,60.09
2018-10-21T10:00:49.676Z,58.24
2018-10-21T10:03:18.330Z,55.53
2018-10-21T10:05:47.323Z,57.05
2018-10-21T10:08:16.075Z,56.42
2018-10-21T10:10:44.792Z,55.38
2018-10-21T10:13:13.553Z,56.27
2018-10-21T10:15:42.423Z,55.74
2018-10-21T10:18:12.097Z,56.17
2018-10-21T10:20:40.847Z,55.94
2018-10-21T10:23:09.576Z,54.86
2018-10-21T10:25:38.286Z,54.39
2018-10-21T10:28:07.588Z,53.42
2018-10-21T10:30:36.234Z,52.95
2018-10-21T10:33:04.980Z,52.80
2018-10-21T10:35:33.929Z,52.33
2018-10-21T10:38:02.603Z,53.80
2018-10-21T10:40:31.250Z,55.39
2018-10-21T10:43:00.043Z,56.21
2018-10-21T10:45:28.758Z,56.21
2018-10-21T10:47:57.421Z,56.72
2018-10-21T10:50:26.079Z,55.55
2018-10-21T10:52:54.860Z,55.36
2018-10-21T10:55:24.608Z,54.00
2018-10-21T10:57:53.334Z,54.01
2018-10-21T11:00:22.046Z,55.60
2018-10-21T11:02:50.715Z,56.52
2018-10-21T11:05:19.464Z,57.65
2018-10-21T11:07:48.182Z,58.37
2018-10-21T11:10:16.962Z,59.21
2018-10-21T11:12:46.120Z,59.58
2018-10-21T11:15:15.207Z,59.73
2018-10-21T11:17:44.278Z,60.51
2018-10-21T11:20:13.013Z,61.93
2018-10-21T11:22:41.854Z,62.46
2018-10-21T11:25:10.587Z,61.66
2018-10-21T11:27:39.370Z,62.18
2018-10-21T11:30:09.421Z,63.98
2018-10-21T11:32:38.187Z,67.07
2018-10-21T11:35:07.326Z,67.55
2018-10-21T11:37:36.152Z,68.60
2018-10-21T11:40:04.955Z,68.52
2018-10-21T11:42:33.791Z,68.19
2018-10-21T11:45:02.643Z,69.20
2018-10-21T11:47:31.322Z,68.65
2018-10-21T11:50:00.092Z,68.26
2018-10-21T11:52:28.887Z,68.87
2018-10-21T11:54:57.617Z,68.60
2018-10-21T11:57:26.407Z,69.11
2018-10-21T11:59:56.146Z,69.14
2018-10-21T12:02:24.860Z,69.18
2018-10-21T12:04:53.624Z,69.71
2018-10-21T12:07:22.351Z,69.24
2018-10-21T12:09:51.226Z,69.30
2018-10-21T12:12:19.951Z,69.43
2018-10-21T12:14:48.643Z,69.35
2018-10-21T12:17:17.344Z,69.05
2018-10-21T12:19:46.139Z,68.67
2018-10-21T12:22:14.844Z,69.87
2018-10-21T12:24:43.561Z,69.44
2018-10-21T12:27:12.272Z,69.45
2018-10-21T12:29:40.960Z,69.36
2018-10-21T12:32:09.590Z,70.08
2018-10-21T12:34:38.282Z,70.29
2018-10-21T12:37:07.074Z,70.20
2018-10-21T12:39:35.798Z,69.62
2018-10-21T12:42:04.585Z,70.20
2018-10-21T12:44:33.260Z,69.44
2018-10-21T12:47:01.952Z,69.51
2018-10-21T12:49:30.627Z,69.16
2018-10-21T12:51:59.380Z,68.70
2018-10-21T12:54:28.184Z,68.44
2018-10-21T12:56:56.840Z,68.29
2018-10-21T12:59:25.523Z,68.66
2018-10-21T13:01:54.184Z,68.83
2018-10-21T13:04:23.114Z,68.71
2018-10-21T13:06:51.902Z,69.01
2018-10-21T13:09:20.579Z,68.78
2018-10-21T13:11:49.288Z,67.96
2018-10-21T13:14:18.001Z,68.93
2018-10-21T13:16:46.708Z,68.75
2018-10-21T13:19:15.514Z,68.43
2018-10-21T13:21:44.241Z,68.01
2018-10-21T13:24:12.921Z,68.14
2018-10-21T13:26:41.590Z,68.97
2018-10-21T13:29:10.254Z,68.85
2018-10-21T13:31:38.946Z,68.88
2018-10-21T13:34:07.723Z,68.75
2018-10-21T13:36:36.391Z,68.87
2018-10-21T13:39:07.808Z,69.61
2018-10-21T13:41:36.502Z,69.09
2018-10-21T13:44:05.267Z,69.40
2018-10-21T13:46:33.921Z,69.64
2018-10-21T13:49:02.630Z,70.46
2018-10-21T13:51:31.330Z,69.54
2018-10-21T13:54:00.430Z,70.77
2018-10-21T13:56:29.267Z,70.11
2018-10-21T13:58:57.927Z,70.24
2018-10-21T14:01:27.105Z,70.66
2018-10-21T14:03:55.815Z,70.54
2018-10-21T14:06:24.816Z,70.43
2018-10-21T14:08:53.576Z,71.54
2018-10-21T14:11:22.478Z,70.62
2018-10-21T14:13:51.150Z,70.69
2018-10-21T14:16:19.940Z,71.72
2018-10-21T14:18:48.622Z,71.64
2018-10-21T14:21:17.350Z,72.13
2018-10-21T14:23:46.055Z,72.16
2018-10-21T14:26:14.739Z,73.10
2018-10-21T14:28:43.441Z,73.13
2018-10-21T14:31:12.086Z,73.68
2018-10-21T14:33:40.794Z,73.45
2018-10-21T14:36:09.580Z,72.75
2018-10-21T14:38:38.689Z,71.78
2018-10-21T14:41:07.330Z,72.86
2018-10-21T14:43:36.279Z,72.44
2018-10-21T14:46:05.260Z,72.62
2018-10-21T14:48:33.850Z,72.33
2018-10-21T14:51:02.704Z,73.01
2018-10-21T14:53:31.473Z,72.24
2018-10-21T14:56:00.180Z,72.59
2018-10-21T14:58:28.971Z,72.54
2018-10-21T15:00:57.636Z,72.67
2018-10-21T15:03:26.378Z,72.95
2018-10-21T15:05:55.159Z,72.96
2018-10-21T15:08:23.912Z,73.15
2018-10-21T15:10:52.677Z,73.27
2018-10-21T15:13:23.035Z,73.70
2018-10-21T15:15:51.700Z,73.85
2018-10-21T15:18:21.351Z,73.63
2018-10-21T15:20:50.163Z,73.55
2018-10-21T15:23:19.029Z,72.93
2018-10-21T15:25:47.866Z,73.20
2018-10-21T15:28:16.661Z,73.48
2018-10-21T15:30:45.299Z,73.32
2018-10-21T15:33:20.738Z,74.08
2018-10-21T15:35:53.442Z,74.56
2018-10-21T15:38:22.152Z,74.98
2018-10-21T15:40:51.202Z,75.73
2018-10-21T15:43:19.953Z,74.94
2018-10-21T15:45:48.802Z,75.66
2018-10-21T15:48:17.426Z,75.76
2018-10-21T15:50:46.370Z,76.38
2018-10-21T15:53:14.958Z,77.30
2018-10-21T15:55:43.659Z,77.02
2018-10-21T15:58:12.351Z,77.76
2018-10-21T16:00:41.086Z,78.05
2018-10-21T16:03:09.764Z,78.52
2018-10-21T16:05:38.441Z,78.35
2018-10-21T16:08:07.653Z,78.43
2018-10-21T16:10:36.598Z,78.65
2018-10-21T16:13:06.556Z,79.15
2018-10-21T16:15:35.294Z,79.77
2018-10-21T16:18:04.093Z,79.58
2018-10-21T16:20:33.668Z,79.47
2018-10-21T16:23:02.371Z,79.95
2018-10-21T16:25:31.074Z,80.24
2018-10-21T16:28:00.557Z,79.71
2018-10-21T16:30:29.235Z,80.30
2018-10-21T16:32:57.998Z,81.84
2018-10-21T16:35:26.650Z,81.36
2018-10-21T16:37:55.308Z,81.84
2018-10-21T16:40:24.037Z,82.18
2018-10-21T16:42:52.750Z,81.87
2018-10-21T16:45:21.535Z,82.35
2018-10-21T16:47:50.607Z,81.91
2018-10-21T16:50:19.391Z,82.09
2018-10-21T16:52:48.249Z,82.43
2018-10-21T16:55:17.705Z,82.81
2018-10-21T16:57:47.436Z,82.95
2018-10-21T17:00:19.969Z,82.52
2018-10-21T17:02:48.697Z,82.22
2018-10-21T17:05:17.471Z,81.19
2018-10-21T17:07:46.157Z,81.28
2018-10-21T17:10:15.131Z,81.08
2018-10-21T17:12:43.742Z,81.06
2018-10-21T17:15:13.344Z,80.75
2018-10-21T17:17:42.856Z,81.27
2018-10-21T17:20:14.503Z,80.72
2018-10-21T17:22:43.802Z,81.12
2018-10-21T17:25:14.124Z,81.47
2018-10-21T17:27:43.256Z,81.45
2018-10-21T17:30:18.991Z,81.47
2018-10-21T17:32:47.947Z,81.43
2018-10-21T17:35:16.636Z,82.11
2018-10-21T17:37:45.384Z,81.38
2018-10-21T17:40:14.288Z,81.34
2018-10-21T17:42:43.060Z,81.13
2018-10-21T17:45:13.940Z,81.48
2018-10-21T17:47:42.688Z,81.20
2018-10-21T17:50:13.136Z,80.86
2018-10-21T17:52:43.144Z,80.26
2018-10-21T17:55:12.155Z,80.71
2018-10-21T17:57:41.430Z,80.50
2018-10-21T18:00:14.072Z,80.77
2018-10-21T18:02:42.875Z,80.97
2018-10-21T18:05:14.136Z,81.24
2018-10-21T18:07:43.153Z,81.57
2018-10-21T18:10:12.549Z,80.46
2018-10-21T18:12:41.526Z,80.52
2018-10-21T18:15:11.388Z,80.55
2018-10-21T18:17:40.677Z,80.55
2018-10-21T18:20:11.058Z,80.28
2018-10-21T18:22:39.839Z,80.30
2018-10-21T18:25:09.726Z,80.31
2018-10-21T18:27:38.624Z,80.70
2018-10-21T18:30:11.913Z,80.96
2018-10-21T18:32:41.798Z,81.10
2018-10-21T18:35:12.615Z,81.50
2018-10-21T18:37:41.974Z,80.94
2018-10-21T18:40:11.778Z,80.57
2018-10-21T18:42:40.892Z,81.19
2018-10-21T18:45:11.516Z,80.97
2018-10-21T18:47:40.648Z,80.99
2018-10-21T18:50:11.431Z,81.10
2018-10-21T18:52:40.355Z,81.34
2018-10-21T18:55:09.814Z,81.15
2018-10-21T18:57:38.606Z,81.23
2018-10-21T19:00:16.859Z,81.68
2018-10-21T19:02:45.650Z,80.67
2018-10-21T19:05:14.891Z,81.08
2018-10-21T19:07:43.712Z,81.26
2018-10-21T19:10:13.904Z,81.03
2018-10-21T19:12:42.628Z,81.14
2018-10-21T19:15:12.545Z,81.06
2018-10-21T19:17:42.267Z,80.93
2018-10-21T19:20:13.256Z,80.65
2018-10-21T19:22:42.770Z,80.98
2018-10-21T19:25:12.760Z,80.79
2018-10-21T19:27:41.632Z,81.01
2018-10-21T19:30:14.318Z,80.40
2018-10-21T19:32:43.437Z,80.56
2018-10-21T19:35:13.362Z,80.62
2018-10-21T19:37:42.182Z,80.66
2018-10-21T19:40:13.194Z,80.39
2018-10-21T19:42:42.452Z,80.98
2018-10-21T19:45:12.154Z,80.38
2018-10-21T19:47:41.242Z,80.58
2018-10-21T19:50:11.769Z,80.89
2018-10-21T19:52:41.388Z,80.68
2018-10-21T19:55:10.603Z,81.17
2018-10-21T19:57:39.363Z,80.99
2018-10-21T20:00:14.329Z,80.95
2018-10-21T20:02:43.274Z,81.03
2018-10-21T20:05:11.954Z,81.13
2018-10-21T20:07:40.798Z,81.55
2018-10-21T20:10:11.305Z,81.11
2018-10-21T20:12:39.982Z,81.25
2018-10-21T20:15:09.582Z,81.48
2018-10-21T20:17:38.841Z,80.75
2018-10-21T20:20:09.364Z,81.39
2018-10-21T20:22:38.370Z,81.08
2018-10-21T20:25:07.974Z,81.01
2018-10-21T20:27:36.966Z,80.87
2018-10-21T20:30:10.736Z,81.27
2018-10-21T20:32:39.478Z,81.60
2018-10-21T20:35:08.878Z,82.75
2018-10-21T20:37:37.598Z,82.17
2018-10-21T20:40:07.413Z,81.39
2018-10-21T20:42:36.389Z,81.09
2018-10-21T20:45:05.468Z,81.33
2018-10-21T20:47:34.132Z,79.80
2018-10-21T20:50:02.820Z,78.94
2018-10-21T20:52:31.775Z,79.25
2018-10-21T20:55:00.856Z,79.41
2018-10-21T20:57:29.909Z,79.64
2018-10-21T20:59:59.006Z,80.65
2018-10-21T21:02:28.657Z,81.03
2018-10-21T21:04:57.393Z,80.84
2018-10-21T21:07:26.072Z,81.27
2018-10-21T21:09:54.840Z,80.39
2018-10-21T21:12:23.627Z,80.59
2018-10-21T21:14:52.288Z,80.46
2018-10-21T21:17:21.122Z,80.87
2018-10-21T21:19:50.248Z,81.59
2018-10-21T21:22:19.115Z,81.98
2018-10-21T21:24:47.776Z,82.53
2018-10-21T21:27:16.531Z,82.66
2018-10-21T21:29:45.387Z,83.33
2018-10-21T21:32:14.044Z,83.94
2018-10-21T21:34:42.845Z,84.19
2018-10-21T21:37:11.666Z,84.60
2018-10-21T21:39:40.471Z,84.85
2018-10-21T21:42:09.279Z,84.63
2018-10-21T21:44:37.978Z,84.43
2018-10-21T21:47:07.209Z,84.96
2018-10-21T21:49:35.912Z,85.07
2018-10-21T21:52:04.682Z,84.33
2018-10-21T21:54:33.401Z,83.68
2018-10-21T21:57:02.139Z,83.26
2018-10-21T21:59:30.840Z,83.76
2018-10-21T22:01:59.597Z,83.38
2018-10-21T22:04:28.402Z,83.30
2018-10-21T22:06:57.161Z,82.92
2018-10-21T22:09:25.892Z,82.57
2018-10-21T22:11:54.584Z,83.33
2018-10-21T22:14:23.307Z,82.57
2018-10-21T22:16:52.083Z,82.36
2018-10-21T22:19:20.785Z,82.97
2018-10-21T22:21:49.461Z,82.69
2018-10-21T22:24:18.328Z,82.45
2018-10-21T22:26:46.992Z,81.75
2018-10-21T22:29:15.781Z,81.15
2018-10-21T22:31:44.632Z,82.42
2018-10-21T22:34:13.399Z,82.84
2018-10-21T22:36:42.154Z,82.30
2018-10-21T22:39:10.903Z,82.31
2018-10-21T22:41:39.673Z,81.83
2018-10-21T22:44:08.402Z,81.61
2018-10-21T22:46:37.288Z,80.40
2018-10-21T22:49:06.286Z,81.15
2018-10-21T22:51:35.065Z,82.16
2018-10-21T22:54:03.784Z,81.46
2018-10-21T22:56:32.479Z,80.92
2018-10-21T22:59:01.219Z,80.45
2018-10-21T23:01:29.972Z,80.75
2018-10-21T23:03:58.804Z,80.61
2018-10-21T23:06:27.553Z,81.47
2018-10-21T23:08:56.551Z,81.22
2018-10-21T23:11:25.238Z,81.84
2018-10-21T23:13:53.944Z,82.71
2018-10-21T23:16:22.670Z,81.27
2018-10-21T23:18:55.816Z,81.97
2018-10-21T23:21:24.565Z,80.87
2018-10-21T23:23:53.480Z,80.40
2018-10-21T23:26:22.170Z,82.00
2018-10-21T23:28:51.205Z,82.03
2018-10-21T23:31:19.969Z,82.18
2018-10-21T23:33:48.817Z,82.40
2018-10-21T23:36:17.576Z,82.43
2018-10-21T23:38:46.269Z,83.43
2018-10-21T23:41:15.046Z,83.20
2018-10-21T23:43:43.720Z,82.71
2018-10-21T23:46:12.475Z,83.56
2018-10-21T23:48:41.254Z,84.01
2018-10-21T23:51:09.989Z,84.24
2018-10-21T23:53:38.666Z,84.69
2018-10-21T23:56:07.630Z,84.48
2018-10-21T23:58:36.330Z,83.78
